sensor_id;sensor_type;location;lat;lon;timestamp;temperature;humidity
10802;DHT22;5453;50.852;7.102;2024-01-15T00:00:23;2.30;99.90
10802;DHT22;5453;50.852;7.102;2024-01-15T00:02:55;2.40;99.90
10802;DHT22;5453;50.852;7.102;2024-01-15T00:05:28;2.40;99.90
10802;DHT22;5453;50.852;7.102;2024-01-15T00:08:00;2.50;99.90
10802;DHT22;5453;50.852;7.102;2024-01-15T00:10:34;2.50;99.90
10802;DHT22;5453;50.852;7.102;2024-01-15T00:13:06;2.50;99.90
10802;DHT22;5453;50.852;7.102;2024-01-15T00:15:38;2.50;99.90
10802;DHT22;5453;50.852;7.102;2024-01-15T00:18:11;2.50;99.90
10802;DHT22;5453;50.852;7.102;2024-01-15T00:20:43;2.60;99.90
10802;DHT22;5453;50.852;7.102;2024-01-15T00:23:16;2.60;99.90
10802;DHT22;5453;50.852;7.102;2024-01-15T00:25:51;2.60;99.90
10802;DHT22;5453;50.852;7.102;2024-01-15T00:28:23;2.60;99.90
10802;DHT22;5453;50.852;7.102;2024-01-15T00:30:55;2.50;99.90
10802;DHT22;5453;50.852;7.102;2024-01-15T00:33:28;2.60;99.90
10802;DHT22;5453;50.852;7.102;2024-01-15T00:36:00;2.50;99.90
10802;DHT22;5453;50.852;7.102;2024-01-15T00:38:32;2.50;99.90
10802;DHT22;5453;50.852;7.102;2024-01-15T00:41:06;2.50;99.90
10802;DHT22;5453;50.852;7.102;2024-01-15T00:43:39;2.50;99.90
10802;DHT22;5453;50.852;7.102;2024-01-15T00:46:11;2.50;99.90
10802;DHT22;5453;50.852;7.102;2024-01-15T00:48:44;2.40;99.90
10802;DHT22;5453;50.852;7.102;2024-01-15T00:51:17;2.40;99.90
10802;DHT22;5453;50.852;7.102;2024-01-15T00:53:50;2.40;99.90
10802;DHT22;5453;50.852;7.102;2024-01-15T00:56:23;2.40;99.90
10802;DHT22;5453;50.852;7.102;2024-01-15T00:58:59;2.30;99.90
10802;DHT22;5453;50.852;7.102;2024-01-15T01:01:32;2.30;99.90
10802;DHT22;5453;50.852;7.102;2024-01-15T01:04:04;2.30;99.90
10802;DHT22;5453;50.852;7.102;2024-01-15T01:06:36;2.30;99.90
10802;DHT22;5453;50.852;7.102;2024-01-15T01:09:09;2.30;99.90
10802;DHT22;5453;50.852;7.102;2024-01-15T01:11:42;2.30;99.90
10802;DHT22;5453;50.852;7.102;2024-01-15T01:14:15;2.30;99.90
10802;DHT22;5453;50.852;7.102;2024-01-15T01:16:47;2.30;99.90
10802;DHT22;5453;50.852;7.102;2024-01-15T01:19:20;2.30;99.90
10802;DHT22;5453;50.852;7.102;2024-01-15T01:21:52;2.20;99.90
10802;DHT22;5453;50.852;7.102;2024-01-15T01:24:24;2.20;99.90
10802;DHT22;5453;50.852;7.102;2024-01-15T01:26:58;2.20;99.90
10802;DHT22;5453;50.852;7.102;2024-01-15T01:29:30;2.20;99.90
10802;DHT22;5453;50.852;7.102;2024-01-15T01:32:03;2.30;99.90
10802;DHT22;5453;50.852;7.102;2024-01-15T01:34:40;2.20;99.90
10802;DHT22;5453;50.852;7.102;2024-01-15T01:37:14;2.20;99.90
10802;DHT22;5453;50.852;7.102;2024-01-15T01:39:46;2.20;99.90
10802;DHT22;5453;50.852;7.102;2024-01-15T01:42:20;2.20;99.90
10802;DHT22;5453;50.852;7.102;2024-01-15T01:44:52;2.20;99.90
10802;DHT22;5453;50.852;7.102;2024-01-15T01:47:25;2.10;99.90
10802;DHT22;5453;50.852;7.102;2024-01-15T01:49:57;2.10;99.90
10802;DHT22;5453;50.852;7.102;2024-01-15T01:52:30;2.10;99.90
10802;DHT22;5453;50.852;7.102;2024-01-15T01:55:07;2.10;99.90
10802;DHT22;5453;50.852;7.102;2024-01-15T01:57:43;2.10;99.90
10802;DHT22;5453;50.852;7.102;2024-01-15T02:00:15;2.10;99.90
10802;DHT22;5453;50.852;7.102;2024-01-15T02:02:48;2.20;99.90
10802;DHT22;5453;50.852;7.102;2024-01-15T02:05:23;2.10;99.90
10802;DHT22;5453;50.852;7.102;2024-01-15T02:07:56;2.10;99.90
10802;DHT22;5453;50.852;7.102;2024-01-15T02:10:29;2.10;99.90
10802;DHT22;5453;50.852;7.102;2024-01-15T02:13:02;2.10;99.90
10802;DHT22;5453;50.852;7.102;2024-01-15T02:15:35;2.20;99.90
10802;DHT22;5453;50.852;7.102;2024-01-15T02:18:07;2.20;99.90
10802;DHT22;5453;50.852;7.102;2024-01-15T02:20:40;2.20;99.90
10802;DHT22;5453;50.852;7.102;2024-01-15T02:23:14;2.30;99.90
10802;DHT22;5453;50.852;7.102;2024-01-15T02:25:47;2.20;99.90
10802;DHT22;5453;50.852;7.102;2024-01-15T02:28:20;2.30;99.90
10802;DHT22;5453;50.852;7.102;2024-01-15T02:30:52;2.30;99.90
10802;DHT22;5453;50.852;7.102;2024-01-15T02:33:25;2.30;99.90
10802;DHT22;5453;50.852;7.102;2024-01-15T02:35:57;2.30;99.90
10802;DHT22;5453;50.852;7.102;2024-01-15T02:38:31;2.30;99.90
10802;DHT22;5453;50.852;7.102;2024-01-15T02:41:06;2.20;99.90
10802;DHT22;5453;50.852;7.102;2024-01-15T02:43:38;2.20;99.90
10802;DHT22;5453;50.852;7.102;2024-01-15T02:46:11;2.20;99.90
10802;DHT22;5453;50.852;7.102;2024-01-15T02:48:43;2.20;99.90
10802;DHT22;5453;50.852;7.102;2024-01-15T02:51:18;2.20;99.90
10802;DHT22;5453;50.852;7.102;2024-01-15T02:53:52;2.20;99.90
10802;DHT22;5453;50.852;7.102;2024-01-15T02:56:24;2.20;99.90
10802;DHT22;5453;50.852;7.102;2024-01-15T02:58:57;2.20;99.90
10802;DHT22;5453;50.852;7.102;2024-01-15T03:01:33;2.30;99.90
10802;DHT22;5453;50.852;7.102;2024-01-15T03:04:05;2.30;99.90
10802;DHT22;5453;50.852;7.102;2024-01-15T03:06:37;2.30;99.90
10802;DHT22;5453;50.852;7.102;2024-01-15T03:09:11;2.30;99.90
10802;DHT22;5453;50.852;7.102;2024-01-15T03:11:43;2.30;99.90
10802;DHT22;5453;50.852;7.102;2024-01-15T03:14:16;2.30;99.90
10802;DHT22;5453;50.852;7.102;2024-01-15T03:16:48;2.40;99.90
10802;DHT22;5453;50.852;7.102;2024-01-15T03:19:20;2.40;99.90
10802;DHT22;5453;50.852;7.102;2024-01-15T03:21:53;2.50;99.90
10802;DHT22;5453;50.852;7.102;2024-01-15T03:24:27;2.40;99.90
10802;DHT22;5453;50.852;7.102;2024-01-15T03:26:59;2.50;99.90
10802;DHT22;5453;50.852;7.102;2024-01-15T03:29:34;2.50;99.90
10802;DHT22;5453;50.852;7.102;2024-01-15T03:32:06;2.50;99.90
10802;DHT22;5453;50.852;7.102;2024-01-15T03:34:39;2.50;99.90
10802;DHT22;5453;50.852;7.102;2024-01-15T03:37:11;2.50;99.90
10802;DHT22;5453;50.852;7.102;2024-01-15T03:39:45;2.50;99.90
10802;DHT22;5453;50.852;7.102;2024-01-15T03:42:17;2.40;99.90
10802;DHT22;5453;50.852;7.102;2024-01-15T03:44:50;2.40;99.90
10802;DHT22;5453;50.852;7.102;2024-01-15T03:47:22;2.50;99.90
10802;DHT22;5453;50.852;7.102;2024-01-15T03:49:54;2.40;99.90
10802;DHT22;5453;50.852;7.102;2024-01-15T03:52:27;2.40;99.90
10802;DHT22;5453;50.852;7.102;2024-01-15T03:55:00;2.40;99.90
10802;DHT22;5453;50.852;7.102;2024-01-15T03:57:33;2.40;99.90
10802;DHT22;5453;50.852;7.102;2024-01-15T04:00:06;2.40;99.90
10802;DHT22;5453;50.852;7.102;2024-01-15T04:02:39;2.40;99.90
10802;DHT22;5453;50.852;7.102;2024-01-15T04:05:11;2.40;99.90
10802;DHT22;5453;50.852;7.102;2024-01-15T04:07:44;2.50;99.90
10802;DHT22;5453;50.852;7.102;2024-01-15T04:10:18;2.50;99.90
10802;DHT22;5453;50.852;7.102;2024-01-15T04:12:50;2.50;99.90
10802;DHT22;5453;50.852;7.102;2024-01-15T04:15:26;2.50;99.90
10802;DHT22;5453;50.852;7.102;2024-01-15T04:17:58;2.60;99.90
10802;DHT22;5453;50.852;7.102;2024-01-15T04:20:31;2.50;99.90
10802;DHT22;5453;50.852;7.102;2024-01-15T04:23:04;2.50;99.90
10802;DHT22;5453;50.852;7.102;2024-01-15T04:25:38;2.50;99.90
10802;DHT22;5453;50.852;7.102;2024-01-15T04:28:13;2.50;99.90
10802;DHT22;5453;50.852;7.102;2024-01-15T04:30:45;2.50;99.90
10802;DHT22;5453;50.852;7.102;2024-01-15T04:33:18;2.60;99.90
10802;DHT22;5453;50.852;7.102;2024-01-15T04:35:50;2.60;99.90
10802;DHT22;5453;50.852;7.102;2024-01-15T04:38:22;2.60;99.90
10802;DHT22;5453;50.852;7.102;2024-01-15T04:40:56;2.60;99.90
10802;DHT22;5453;50.852;7.102;2024-01-15T04:43:31;2.60;99.90
10802;DHT22;5453;50.852;7.102;2024-01-15T04:46:08;2.60;99.90
10802;DHT22;5453;50.852;7.102;2024-01-15T04:48:41;2.50;99.90
10802;DHT22;5453;50.852;7.102;2024-01-15T04:51:13;2.60;99.90
10802;DHT22;5453;50.852;7.102;2024-01-15T04:53:45;2.60;99.90
10802;DHT22;5453;50.852;7.102;2024-01-15T04:56:19;2.60;99.90
10802;DHT22;5453;50.852;7.102;2024-01-15T04:58:51;2.60;99.90
10802;DHT22;5453;50.852;7.102;2024-01-15T05:01:24;2.60;99.90
10802;DHT22;5453;50.852;7.102;2024-01-15T05:03:56;2.60;99.90
10802;DHT22;5453;50.852;7.102;2024-01-15T05:06:29;2.60;99.90
10802;DHT22;5453;50.852;7.102;2024-01-15T05:09:01;2.60;99.90
10802;DHT22;5453;50.852;7.102;2024-01-15T05:11:36;2.60;99.90
10802;DHT22;5453;50.852;7.102;2024-01-15T05:14:08;2.60;99.90
10802;DHT22;5453;50.852;7.102;2024-01-15T05:16:46;2.70;99.90
10802;DHT22;5453;50.852;7.102;2024-01-15T05:19:19;2.70;99.90
10802;DHT22;5453;50.852;7.102;2024-01-15T05:21:52;2.70;99.90
10802;DHT22;5453;50.852;7.102;2024-01-15T05:24:24;2.70;99.90
10802;DHT22;5453;50.852;7.102;2024-01-15T05:26:58;2.70;99.90
10802;DHT22;5453;50.852;7.102;2024-01-15T05:29:34;2.70;99.90
10802;DHT22;5453;50.852;7.102;2024-01-15T05:32:06;2.70;99.90
10802;DHT22;5453;50.852;7.102;2024-01-15T05:34:38;2.70;99.90
10802;DHT22;5453;50.852;7.102;2024-01-15T05:37:10;2.80;99.90
10802;DHT22;5453;50.852;7.102;2024-01-15T05:39:43;2.80;99.90
10802;DHT22;5453;50.852;7.102;2024-01-15T05:42:17;2.80;99.90
10802;DHT22;5453;50.852;7.102;2024-01-15T05:44:49;2.80;99.90
10802;DHT22;5453;50.852;7.102;2024-01-15T05:47:21;2.80;99.90
10802;DHT22;5453;50.852;7.102;2024-01-15T05:49:55;2.80;99.90
10802;DHT22;5453;50.852;7.102;2024-01-15T05:52:28;2.80;99.90
10802;DHT22;5453;50.852;7.102;2024-01-15T05:55:00;2.80;99.90
10802;DHT22;5453;50.852;7.102;2024-01-15T05:57:37;2.80;99.90
10802;DHT22;5453;50.852;7.102;2024-01-15T06:00:10;2.80;99.90
10802;DHT22;5453;50.852;7.102;2024-01-15T06:02:44;2.80;99.90
10802;DHT22;5453;50.852;7.102;2024-01-15T06:05:16;2.80;99.90
10802;DHT22;5453;50.852;7.102;2024-01-15T06:07:48;2.80;99.90
10802;DHT22;5453;50.852;7.102;2024-01-15T06:10:21;2.80;99.90
10802;DHT22;5453;50.852;7.102;2024-01-15T06:12:55;2.80;99.90
10802;DHT22;5453;50.852;7.102;2024-01-15T06:15:27;2.80;99.90
10802;DHT22;5453;50.852;7.102;2024-01-15T06:17:59;2.80;99.90
10802;DHT22;5453;50.852;7.102;2024-01-15T06:20:32;2.80;99.90
10802;DHT22;5453;50.852;7.102;2024-01-15T06:23:04;2.90;99.90
10802;DHT22;5453;50.852;7.102;2024-01-15T06:25:40;2.90;99.90
10802;DHT22;5453;50.852;7.102;2024-01-15T06:28:13;2.80;99.90
10802;DHT22;5453;50.852;7.102;2024-01-15T06:30:46;2.90;99.90
10802;DHT22;5453;50.852;7.102;2024-01-15T06:33:18;2.90;99.90
10802;DHT22;5453;50.852;7.102;2024-01-15T06:35:51;2.80;99.90
10802;DHT22;5453;50.852;7.102;2024-01-15T06:38:23;2.90;99.90
10802;DHT22;5453;50.852;7.102;2024-01-15T06:40:55;2.90;99.90
10802;DHT22;5453;50.852;7.102;2024-01-15T06:43:29;2.90;99.90
10802;DHT22;5453;50.852;7.102;2024-01-15T06:46:01;2.90;99.90
10802;DHT22;5453;50.852;7.102;2024-01-15T06:48:34;2.90;99.90
10802;DHT22;5453;50.852;7.102;2024-01-15T06:51:06;2.90;99.90
10802;DHT22;5453;50.852;7.102;2024-01-15T06:53:42;2.90;99.90
10802;DHT22;5453;50.852;7.102;2024-01-15T06:56:14;2.90;99.90
10802;DHT22;5453;50.852;7.102;2024-01-15T06:58:48;2.90;99.90
10802;DHT22;5453;50.852;7.102;2024-01-15T07:01:20;2.90;99.90
10802;DHT22;5453;50.852;7.102;2024-01-15T07:03:53;2.90;99.90
10802;DHT22;5453;50.852;7.102;2024-01-15T07:06:25;2.90;99.90
10802;DHT22;5453;50.852;7.102;2024-01-15T07:08:57;2.90;99.90
10802;DHT22;5453;50.852;7.102;2024-01-15T07:11:30;2.90;99.90
10802;DHT22;5453;50.852;7.102;2024-01-15T07:14:04;2.90;99.90
10802;DHT22;5453;50.852;7.102;2024-01-15T07:16:36;2.90;99.90
10802;DHT22;5453;50.852;7.102;2024-01-15T07:19:09;2.90;99.90
10802;DHT22;5453;50.852;7.102;2024-01-15T07:21:41;2.90;99.90
10802;DHT22;5453;50.852;7.102;2024-01-15T07:24:13;3.00;99.90
10802;DHT22;5453;50.852;7.102;2024-01-15T07:26:46;3.00;99.90
10802;DHT22;5453;50.852;7.102;2024-01-15T07:29:19;3.00;99.90
10802;DHT22;5453;50.852;7.102;2024-01-15T07:31:52;3.00;99.90
10802;DHT22;5453;50.852;7.102;2024-01-15T07:34:24;2.90;99.90
10802;DHT22;5453;50.852;7.102;2024-01-15T07:36:57;2.90;99.90
10802;DHT22;5453;50.852;7.102;2024-01-15T07:39:29;3.00;99.90
10802;DHT22;5453;50.852;7.102;2024-01-15T07:42:02;3.00;99.90
10802;DHT22;5453;50.852;7.102;2024-01-15T07:44:36;2.90;99.90
10802;DHT22;5453;50.852;7.102;2024-01-15T07:47:08;2.90;99.90
10802;DHT22;5453;50.852;7.102;2024-01-15T07:49:44;3.00;99.90
10802;DHT22;5453;50.852;7.102;2024-01-15T07:52:16;3.00;99.90
10802;DHT22;5453;50.852;7.102;2024-01-15T07:54:49;3.00;99.90
10802;DHT22;5453;50.852;7.102;2024-01-15T07:57:21;3.00;99.90
10802;DHT22;5453;50.852;7.102;2024-01-15T07:59:58;3.00;99.90
10802;DHT22;5453;50.852;7.102;2024-01-15T08:02:32;3.00;99.90
10802;DHT22;5453;50.852;7.102;2024-01-15T08:05:05;3.00;99.90
10802;DHT22;5453;50.852;7.102;2024-01-15T08:07:37;3.00;99.90
10802;DHT22;5453;50.852;7.102;2024-01-15T08:10:09;3.00;99.90
10802;DHT22;5453;50.852;7.102;2024-01-15T08:12:44;3.00;99.90
10802;DHT22;5453;50.852;7.102;2024-01-15T08:15:18;3.00;99.90
10802;DHT22;5453;50.852;7.102;2024-01-15T08:17:50;3.00;99.90
10802;DHT22;5453;50.852;7.102;2024-01-15T08:20:23;3.00;99.90
10802;DHT22;5453;50.852;7.102;2024-01-15T08:22:56;3.00;99.90
10802;DHT22;5453;50.852;7.102;2024-01-15T08:25:28;3.10;99.90
10802;DHT22;5453;50.852;7.102;2024-01-15T08:28:00;3.10;99.90
10802;DHT22;5453;50.852;7.102;2024-01-15T08:30:34;3.10;99.90
10802;DHT22;5453;50.852;7.102;2024-01-15T08:33:07;3.10;99.90
10802;DHT22;5453;50.852;7.102;2024-01-15T08:35:39;3.20;99.90
10802;DHT22;5453;50.852;7.102;2024-01-15T08:38:11;3.20;99.90
10802;DHT22;5453;50.852;7.102;2024-01-15T08:40:44;3.20;99.90
10802;DHT22;5453;50.852;7.102;2024-01-15T08:43:16;3.20;99.90
10802;DHT22;5453;50.852;7.102;2024-01-15T08:45:50;3.30;99.90
10802;DHT22;5453;50.852;7.102;2024-01-15T08:48:21;3.30;99.90
10802;DHT22;5453;50.852;7.102;2024-01-15T08:50:54;3.30;99.90
10802;DHT22;5453;50.852;7.102;2024-01-15T08:53:27;3.30;99.90
10802;DHT22;5453;50.852;7.102;2024-01-15T08:55:59;3.40;99.90
10802;DHT22;5453;50.852;7.102;2024-01-15T08:58:32;3.40;99.90
10802;DHT22;5453;50.852;7.102;2024-01-15T09:01:06;3.40;99.90
10802;DHT22;5453;50.852;7.102;2024-01-15T09:03:38;3.40;99.90
10802;DHT22;5453;50.852;7.102;2024-01-15T09:06:12;3.40;99.90
10802;DHT22;5453;50.852;7.102;2024-01-15T09:08:45;3.40;99.90
10802;DHT22;5453;50.852;7.102;2024-01-15T09:11:17;3.40;99.90
10802;DHT22;5453;50.852;7.102;2024-01-15T09:13:52;3.40;99.90
10802;DHT22;5453;50.852;7.102;2024-01-15T09:16:26;3.40;99.90
10802;DHT22;5453;50.852;7.102;2024-01-15T09:18:58;3.40;99.90
10802;DHT22;5453;50.852;7.102;2024-01-15T09:21:31;3.40;99.90
10802;DHT22;5453;50.852;7.102;2024-01-15T09:24:06;3.30;99.90
10802;DHT22;5453;50.852;7.102;2024-01-15T09:26:39;3.40;99.90
10802;DHT22;5453;50.852;7.102;2024-01-15T09:29:11;3.40;99.90
10802;DHT22;5453;50.852;7.102;2024-01-15T09:31:48;3.30;99.90
10802;DHT22;5453;50.852;7.102;2024-01-15T09:34:21;3.40;99.90
10802;DHT22;5453;50.852;7.102;2024-01-15T09:36:53;3.40;99.90
10802;DHT22;5453;50.852;7.102;2024-01-15T09:39:26;3.30;99.90
10802;DHT22;5453;50.852;7.102;2024-01-15T09:42:02;3.30;99.90
10802;DHT22;5453;50.852;7.102;2024-01-15T09:44:35;3.40;99.90
10802;DHT22;5453;50.852;7.102;2024-01-15T09:47:10;3.30;99.90
10802;DHT22;5453;50.852;7.102;2024-01-15T09:49:43;3.30;99.90
10802;DHT22;5453;50.852;7.102;2024-01-15T09:52:16;3.30;99.90
10802;DHT22;5453;50.852;7.102;2024-01-15T09:54:52;3.20;99.90
10802;DHT22;5453;50.852;7.102;2024-01-15T09:57:24;3.10;99.90
10802;DHT22;5453;50.852;7.102;2024-01-15T09:59:59;3.00;99.90
10802;DHT22;5453;50.852;7.102;2024-01-15T10:02:38;3.00;99.90
10802;DHT22;5453;50.852;7.102;2024-01-15T10:05:12;2.90;99.90
10802;DHT22;5453;50.852;7.102;2024-01-15T10:07:46;2.90;99.90
10802;DHT22;5453;50.852;7.102;2024-01-15T10:10:20;2.80;99.90
10802;DHT22;5453;50.852;7.102;2024-01-15T10:12:55;2.80;99.90
10802;DHT22;5453;50.852;7.102;2024-01-15T10:15:26;2.80;99.90
10802;DHT22;5453;50.852;7.102;2024-01-15T10:18:00;2.70;99.90
10802;DHT22;5453;50.852;7.102;2024-01-15T10:20:33;2.60;99.90
10802;DHT22;5453;50.852;7.102;2024-01-15T10:23:05;2.50;99.90
10802;DHT22;5453;50.852;7.102;2024-01-15T10:25:38;2.50;99.90
10802;DHT22;5453;50.852;7.102;2024-01-15T10:28:13;2.50;99.90
10802;DHT22;5453;50.852;7.102;2024-01-15T10:30:45;2.50;99.90
10802;DHT22;5453;50.852;7.102;2024-01-15T10:33:22;2.50;99.90
10802;DHT22;5453;50.852;7.102;2024-01-15T10:35:56;2.50;99.90
10802;DHT22;5453;50.852;7.102;2024-01-15T10:38:30;2.50;99.90
10802;DHT22;5453;50.852;7.102;2024-01-15T10:41:03;2.50;99.90
10802;DHT22;5453;50.852;7.102;2024-01-15T10:43:36;2.50;99.90
10802;DHT22;5453;50.852;7.102;2024-01-15T10:46:12;2.50;99.90
10802;DHT22;5453;50.852;7.102;2024-01-15T10:48:46;2.50;99.90
10802;DHT22;5453;50.852;7.102;2024-01-15T10:51:19;2.50;99.90
10802;DHT22;5453;50.852;7.102;2024-01-15T10:53:51;2.50;99.90
10802;DHT22;5453;50.852;7.102;2024-01-15T10:56:25;2.50;99.90
10802;DHT22;5453;50.852;7.102;2024-01-15T10:58:59;2.50;99.90
10802;DHT22;5453;50.852;7.102;2024-01-15T11:01:32;2.50;99.90
10802;DHT22;5453;50.852;7.102;2024-01-15T11:04:07;2.50;99.90
10802;DHT22;5453;50.852;7.102;2024-01-15T11:06:45;2.60;99.90
10802;DHT22;5453;50.852;7.102;2024-01-15T11:09:18;2.70;99.90
10802;DHT22;5453;50.852;7.102;2024-01-15T11:11:54;2.70;99.90
10802;DHT22;5453;50.852;7.102;2024-01-15T11:14:39;2.60;99.90
10802;DHT22;5453;50.852;7.102;2024-01-15T11:17:15;2.60;99.90
10802;DHT22;5453;50.852;7.102;2024-01-15T11:19:51;2.50;99.90
10802;DHT22;5453;50.852;7.102;2024-01-15T11:22:47;2.50;99.90
10802;DHT22;5453;50.852;7.102;2024-01-15T11:25:20;2.50;99.90
10802;DHT22;5453;50.852;7.102;2024-01-15T11:27:53;2.50;99.90
10802;DHT22;5453;50.852;7.102;2024-01-15T11:30:33;2.50;99.90
10802;DHT22;5453;50.852;7.102;2024-01-15T11:33:33;2.50;99.90
10802;DHT22;5453;50.852;7.102;2024-01-15T11:36:11;2.50;99.90
10802;DHT22;5453;50.852;7.102;2024-01-15T11:38:43;2.60;99.90
10802;DHT22;5453;50.852;7.102;2024-01-15T11:41:16;2.60;99.90
10802;DHT22;5453;50.852;7.102;2024-01-15T11:43:48;2.70;99.90
10802;DHT22;5453;50.852;7.102;2024-01-15T11:46:21;2.70;99.90
10802;DHT22;5453;50.852;7.102;2024-01-15T11:49:01;2.70;99.90
10802;DHT22;5453;50.852;7.102;2024-01-15T11:51:38;2.70;99.90
10802;DHT22;5453;50.852;7.102;2024-01-15T11:54:12;2.80;99.90
10802;DHT22;5453;50.852;7.102;2024-01-15T11:56:45;2.70;99.90
10802;DHT22;5453;50.852;7.102;2024-01-15T11:59:18;2.80;99.90
10802;DHT22;5453;50.852;7.102;2024-01-15T12:01:51;2.80;99.90
10802;DHT22;5453;50.852;7.102;2024-01-15T12:04:27;2.80;99.90
10802;DHT22;5453;50.852;7.102;2024-01-15T12:07:01;2.80;99.90
10802;DHT22;5453;50.852;7.102;2024-01-15T12:09:34;2.90;99.90
10802;DHT22;5453;50.852;7.102;2024-01-15T12:12:09;2.80;99.90
10802;DHT22;5453;50.852;7.102;2024-01-15T12:14:46;2.90;99.90
10802;DHT22;5453;50.852;7.102;2024-01-15T12:17:18;2.90;99.90
10802;DHT22;5453;50.852;7.102;2024-01-15T12:19:51;2.90;99.90
10802;DHT22;5453;50.852;7.102;2024-01-15T12:22:28;2.90;99.90
10802;DHT22;5453;50.852;7.102;2024-01-15T12:25:01;2.90;99.90
10802;DHT22;5453;50.852;7.102;2024-01-15T12:27:34;2.90;99.90
10802;DHT22;5453;50.852;7.102;2024-01-15T12:30:09;3.00;99.90
10802;DHT22;5453;50.852;7.102;2024-01-15T12:32:43;3.00;99.90
10802;DHT22;5453;50.852;7.102;2024-01-15T12:35:17;3.10;99.90
10802;DHT22;5453;50.852;7.102;2024-01-15T12:37:50;3.20;99.90
10802;DHT22;5453;50.852;7.102;2024-01-15T12:40:26;3.40;99.90
10802;DHT22;5453;50.852;7.102;2024-01-15T12:42:59;3.50;99.90
10802;DHT22;5453;50.852;7.102;2024-01-15T12:45:32;3.60;99.90
10802;DHT22;5453;50.852;7.102;2024-01-15T12:48:06;3.60;99.90
10802;DHT22;5453;50.852;7.102;2024-01-15T12:50:43;3.60;99.90
10802;DHT22;5453;50.852;7.102;2024-01-15T12:53:17;3.50;99.90
10802;DHT22;5453;50.852;7.102;2024-01-15T12:55:50;3.50;99.90
10802;DHT22;5453;50.852;7.102;2024-01-15T12:58:22;3.50;99.90
10802;DHT22;5453;50.852;7.102;2024-01-15T13:00:55;3.40;99.90
10802;DHT22;5453;50.852;7.102;2024-01-15T13:03:28;3.40;99.90
10802;DHT22;5453;50.852;7.102;2024-01-15T13:06:00;3.40;99.90
10802;DHT22;5453;50.852;7.102;2024-01-15T13:08:34;3.40;99.90
10802;DHT22;5453;50.852;7.102;2024-01-15T13:11:07;3.40;99.90
10802;DHT22;5453;50.852;7.102;2024-01-15T13:13:41;3.40;99.90
10802;DHT22;5453;50.852;7.102;2024-01-15T13:16:13;3.50;99.90
10802;DHT22;5453;50.852;7.102;2024-01-15T13:18:46;3.50;99.90
10802;DHT22;5453;50.852;7.102;2024-01-15T13:21:20;3.50;99.90
10802;DHT22;5453;50.852;7.102;2024-01-15T13:23:54;3.50;99.90
10802;DHT22;5453;50.852;7.102;2024-01-15T13:26:27;3.50;99.90
10802;DHT22;5453;50.852;7.102;2024-01-15T13:29:00;3.40;99.90
10802;DHT22;5453;50.852;7.102;2024-01-15T13:31:32;3.40;99.90
10802;DHT22;5453;50.852;7.102;2024-01-15T13:34:05;3.50;99.90
10802;DHT22;5453;50.852;7.102;2024-01-15T13:36:38;3.40;99.90
10802;DHT22;5453;50.852;7.102;2024-01-15T13:39:12;3.40;99.90
10802;DHT22;5453;50.852;7.102;2024-01-15T13:41:44;3.40;99.90
10802;DHT22;5453;50.852;7.102;2024-01-15T13:44:18;3.30;99.90
10802;DHT22;5453;50.852;7.102;2024-01-15T13:46:50;3.30;99.90
10802;DHT22;5453;50.852;7.102;2024-01-15T13:49:23;3.30;99.90
10802;DHT22;5453;50.852;7.102;2024-01-15T13:51:56;3.30;99.90
10802;DHT22;5453;50.852;7.102;2024-01-15T13:54:31;3.20;99.90
10802;DHT22;5453;50.852;7.102;2024-01-15T13:57:04;3.20;99.90
10802;DHT22;5453;50.852;7.102;2024-01-15T13:59:36;3.10;99.90
10802;DHT22;5453;50.852;7.102;2024-01-15T14:02:09;3.10;99.90
10802;DHT22;5453;50.852;7.102;2024-01-15T14:04:41;3.10;99.90
10802;DHT22;5453;50.852;7.102;2024-01-15T14:07:14;3.10;99.90
10802;DHT22;5453;50.852;7.102;2024-01-15T14:09:48;3.10;99.90
10802;DHT22;5453;50.852;7.102;2024-01-15T14:12:20;3.10;99.90
10802;DHT22;5453;50.852;7.102;2024-01-15T14:14:53;3.10;99.90
10802;DHT22;5453;50.852;7.102;2024-01-15T14:17:25;3.20;99.90
10802;DHT22;5453;50.852;7.102;2024-01-15T14:19:58;3.20;99.90
10802;DHT22;5453;50.852;7.102;2024-01-15T14:22:30;3.20;99.90
10802;DHT22;5453;50.852;7.102;2024-01-15T14:25:05;3.10;99.90
10802;DHT22;5453;50.852;7.102;2024-01-15T14:27:37;3.10;99.90
10802;DHT22;5453;50.852;7.102;2024-01-15T14:30:11;3.10;99.90
10802;DHT22;5453;50.852;7.102;2024-01-15T14:32:46;3.10;99.90
10802;DHT22;5453;50.852;7.102;2024-01-15T14:35:19;3.00;99.90
10802;DHT22;5453;50.852;7.102;2024-01-15T14:37:51;3.00;99.90
10802;DHT22;5453;50.852;7.102;2024-01-15T14:40:25;2.90;99.90
10802;DHT22;5453;50.852;7.102;2024-01-15T14:42:58;2.90;99.90
10802;DHT22;5453;50.852;7.102;2024-01-15T14:45:30;2.90;99.90
10802;DHT22;5453;50.852;7.102;2024-01-15T14:48:03;3.00;99.90
10802;DHT22;5453;50.852;7.102;2024-01-15T14:50:36;2.90;99.90
10802;DHT22;5453;50.852;7.102;2024-01-15T14:53:08;2.90;99.90
10802;DHT22;5453;50.852;7.102;2024-01-15T14:55:42;2.90;99.90
10802;DHT22;5453;50.852;7.102;2024-01-15T14:58:15;2.90;99.90
10802;DHT22;5453;50.852;7.102;2024-01-15T15:00:51;2.80;99.90
10802;DHT22;5453;50.852;7.102;2024-01-15T15:03:23;2.80;99.90
10802;DHT22;5453;50.852;7.102;2024-01-15T15:05:56;2.70;99.90
10802;DHT22;5453;50.852;7.102;2024-01-15T15:08:28;2.70;99.90
10802;DHT22;5453;50.852;7.102;2024-01-15T15:11:03;2.60;99.90
10802;DHT22;5453;50.852;7.102;2024-01-15T15:13:36;2.60;99.90
10802;DHT22;5453;50.852;7.102;2024-01-15T15:16:08;2.60;99.90
10802;DHT22;5453;50.852;7.102;2024-01-15T15:18:44;2.50;99.90
10802;DHT22;5453;50.852;7.102;2024-01-15T15:21:17;2.50;99.90
10802;DHT22;5453;50.852;7.102;2024-01-15T15:23:49;2.50;99.90
10802;DHT22;5453;50.852;7.102;2024-01-15T15:26:23;2.50;99.90
10802;DHT22;5453;50.852;7.102;2024-01-15T15:28:56;2.60;99.90
10802;DHT22;5453;50.852;7.102;2024-01-15T15:31:28;2.60;99.90
10802;DHT22;5453;50.852;7.102;2024-01-15T15:34:01;2.60;99.90
10802;DHT22;5453;50.852;7.102;2024-01-15T15:36:33;2.60;99.90
10802;DHT22;5453;50.852;7.102;2024-01-15T15:39:06;2.60;99.90
10802;DHT22;5453;50.852;7.102;2024-01-15T15:41:40;2.60;99.90
10802;DHT22;5453;50.852;7.102;2024-01-15T15:44:13;2.60;99.90
10802;DHT22;5453;50.852;7.102;2024-01-15T15:46:47;2.60;99.90
10802;DHT22;5453;50.852;7.102;2024-01-15T15:49:20;2.60;99.90
10802;DHT22;5453;50.852;7.102;2024-01-15T15:51:52;2.60;99.90
10802;DHT22;5453;50.852;7.102;2024-01-15T15:54:25;2.60;99.90
10802;DHT22;5453;50.852;7.102;2024-01-15T15:56:58;2.60;99.90
10802;DHT22;5453;50.852;7.102;2024-01-15T15:59:30;2.50;99.90
10802;DHT22;5453;50.852;7.102;2024-01-15T16:02:03;2.60;99.90
10802;DHT22;5453;50.852;7.102;2024-01-15T16:04:35;2.60;99.90
10802;DHT22;5453;50.852;7.102;2024-01-15T16:07:08;2.50;99.90
10802;DHT22;5453;50.852;7.102;2024-01-15T16:09:42;2.50;99.90
10802;DHT22;5453;50.852;7.102;2024-01-15T16:12:16;2.50;99.90
10802;DHT22;5453;50.852;7.102;2024-01-15T16:14:48;2.50;99.90
10802;DHT22;5453;50.852;7.102;2024-01-15T16:17:21;2.40;99.90
10802;DHT22;5453;50.852;7.102;2024-01-15T16:19:54;2.40;99.90
10802;DHT22;5453;50.852;7.102;2024-01-15T16:22:26;2.40;99.90
10802;DHT22;5453;50.852;7.102;2024-01-15T16:24:59;2.40;99.90
10802;DHT22;5453;50.852;7.102;2024-01-15T16:27:32;2.40;99.90
10802;DHT22;5453;50.852;7.102;2024-01-15T16:30:06;2.40;99.90
10802;DHT22;5453;50.852;7.102;2024-01-15T16:32:39;2.40;99.90
10802;DHT22;5453;50.852;7.102;2024-01-15T16:35:12;2.40;99.90
10802;DHT22;5453;50.852;7.102;2024-01-15T16:37:44;2.40;99.90
10802;DHT22;5453;50.852;7.102;2024-01-15T16:40:17;2.30;99.90